sensor_id;sensor_type;location;lat;lon;timestamp;P1;durP1;ratioP1;P2;durP2;ratioP2
1545;SDS011;766;51.502;9.752;2023-10-19T00:00:55;17.55;;;12.77;;
1545;SDS011;766;51.502;9.752;2023-10-19T00:03:26;16.75;;;12.65;;
1545;SDS011;766;51.502;9.752;2023-10-19T00:05:55;19.70;;;12.48;;
1545;SDS011;766;51.502;9.752;2023-10-19T00:08:25;20.20;;;13.18;;
1545;SDS011;766;51.502;9.752;2023-10-19T00:11:02;19.85;;;13.70;;
1545;SDS011;766;51.502;9.752;2023-10-19T00:13:35;17.40;;;13.20;;
1545;SDS011;766;51.502;9.752;2023-10-19T00:16:04;19.65;;;13.23;;
1545;SDS011;766;51.502;9.752;2023-10-19T00:18:38;19.55;;;13.43;;
1545;SDS011;766;51.502;9.752;2023-10-19T00:21:09;19.65;;;14.07;;
1545;SDS011;766;51.502;9.752;2023-10-19T00:23:50;21.63;;;13.15;;
1545;SDS011;766;51.502;9.752;2023-10-19T00:26:18;20.23;;;13.25;;
1545;SDS011;766;51.502;9.752;2023-10-19T00:28:47;20.05;;;13.38;;
1545;SDS011;766;51.502;9.752;2023-10-19T00:31:19;21.63;;;14.13;;
1545;SDS011;766;51.502;9.752;2023-10-19T00:33:47;27.55;;;14.38;;
1545;SDS011;766;51.502;9.752;2023-10-19T00:36:18;22.92;;;15.13;;
1545;SDS011;766;51.502;9.752;2023-10-19T00:38:49;23.08;;;16.05;;
1545;SDS011;766;51.502;9.752;2023-10-19T00:41:20;25.63;;;17.45;;
1545;SDS011;766;51.502;9.752;2023-10-19T00:43:50;31.42;;;19.20;;
1545;SDS011;766;51.502;9.752;2023-10-19T00:46:24;29.63;;;18.92;;
1545;SDS011;766;51.502;9.752;2023-10-19T00:48:59;32.58;;;19.35;;
1545;SDS011;766;51.502;9.752;2023-10-19T00:51:33;32.05;;;18.90;;
1545;SDS011;766;51.502;9.752;2023-10-19T00:54:19;32.42;;;19.92;;
1545;SDS011;766;51.502;9.752;2023-10-19T00:56:53;31.27;;;19.85;;
1545;SDS011;766;51.502;9.752;2023-10-19T00:59:25;31.00;;;20.05;;
1545;SDS011;766;51.502;9.752;2023-10-19T01:01:57;44.38;;;22.65;;
1545;SDS011;766;51.502;9.752;2023-10-19T01:04:43;48.97;;;21.98;;
1545;SDS011;766;51.502;9.752;2023-10-19T01:07:16;43.13;;;21.52;;
1545;SDS011;766;51.502;9.752;2023-10-19T01:09:50;52.05;;;23.15;;
1545;SDS011;766;51.502;9.752;2023-10-19T01:12:20;48.60;;;23.95;;
1545;SDS011;766;51.502;9.752;2023-10-19T01:15:00;50.88;;;25.80;;
1545;SDS011;766;51.502;9.752;2023-10-19T01:17:32;58.60;;;26.85;;
1545;SDS011;766;51.502;9.752;2023-10-19T01:20:06;44.28;;;26.05;;
1545;SDS011;766;51.502;9.752;2023-10-19T01:22:52;56.28;;;27.25;;
1545;SDS011;766;51.502;9.752;2023-10-19T01:25:32;52.63;;;26.67;;
1545;SDS011;766;51.502;9.752;2023-10-19T01:28:12;56.00;;;27.20;;
1545;SDS011;766;51.502;9.752;2023-10-19T01:30:43;60.58;;;26.88;;
1545;SDS011;766;51.502;9.752;2023-10-19T01:33:13;57.67;;;27.17;;
1545;SDS011;766;51.502;9.752;2023-10-19T01:35:42;51.85;;;26.60;;
1545;SDS011;766;51.502;9.752;2023-10-19T01:38:29;52.72;;;26.58;;
1545;SDS011;766;51.502;9.752;2023-10-19T01:40:58;50.08;;;26.27;;
1545;SDS011;766;51.502;9.752;2023-10-19T01:43:26;49.95;;;25.48;;
1545;SDS011;766;51.502;9.752;2023-10-19T01:45:57;62.97;;;26.77;;
1545;SDS011;766;51.502;9.752;2023-10-19T01:48:25;60.05;;;26.08;;
1545;SDS011;766;51.502;9.752;2023-10-19T01:51:01;48.50;;;24.25;;
1545;SDS011;766;51.502;9.752;2023-10-19T01:53:32;46.28;;;23.13;;
1545;SDS011;766;51.502;9.752;2023-10-19T01:56:04;42.30;;;22.88;;
1545;SDS011;766;51.502;9.752;2023-10-19T01:58:32;59.42;;;23.80;;
1545;SDS011;766;51.502;9.752;2023-10-19T02:01:03;44.72;;;22.17;;
1545;SDS011;766;51.502;9.752;2023-10-19T02:03:41;41.08;;;20.27;;
1545;SDS011;766;51.502;9.752;2023-10-19T02:06:10;53.08;;;21.48;;
1545;SDS011;766;51.502;9.752;2023-10-19T02:08:49;42.28;;;20.08;;
1545;SDS011;766;51.502;9.752;2023-10-19T02:11:19;34.63;;;18.83;;
1545;SDS011;766;51.502;9.752;2023-10-19T02:13:48;36.67;;;19.25;;
1545;SDS011;766;51.502;9.752;2023-10-19T02:16:19;38.40;;;18.05;;
1545;SDS011;766;51.502;9.752;2023-10-19T02:18:49;31.00;;;17.35;;
1545;SDS011;766;51.502;9.752;2023-10-19T02:21:18;36.33;;;17.88;;
1545;SDS011;766;51.502;9.752;2023-10-19T02:23:50;28.38;;;15.88;;
1545;SDS011;766;51.502;9.752;2023-10-19T02:26:18;35.40;;;15.68;;
1545;SDS011;766;51.502;9.752;2023-10-19T02:28:46;31.75;;;17.45;;
1545;SDS011;766;51.502;9.752;2023-10-19T02:31:17;30.50;;;17.08;;
1545;SDS011;766;51.502;9.752;2023-10-19T02:33:47;45.33;;;19.80;;
1545;SDS011;766;51.502;9.752;2023-10-19T02:36:18;35.33;;;19.05;;
1545;SDS011;766;51.502;9.752;2023-10-19T02:38:46;38.90;;;20.60;;
1545;SDS011;766;51.502;9.752;2023-10-19T02:41:20;36.10;;;19.75;;
1545;SDS011;766;51.502;9.752;2023-10-19T02:43:47;39.85;;;20.60;;
1545;SDS011;766;51.502;9.752;2023-10-19T02:46:27;43.08;;;20.90;;
1545;SDS011;766;51.502;9.752;2023-10-19T02:48:55;41.58;;;20.42;;
1545;SDS011;766;51.502;9.752;2023-10-19T02:51:24;37.67;;;20.58;;
1545;SDS011;766;51.502;9.752;2023-10-19T02:53:52;48.03;;;21.33;;
1545;SDS011;766;51.502;9.752;2023-10-19T02:56:21;44.70;;;21.23;;
1545;SDS011;766;51.502;9.752;2023-10-19T02:58:50;41.63;;;19.55;;
1545;SDS011;766;51.502;9.752;2023-10-19T03:01:18;38.28;;;19.98;;
1545;SDS011;766;51.502;9.752;2023-10-19T03:03:49;37.35;;;19.02;;
1545;SDS011;766;51.502;9.752;2023-10-19T03:06:20;42.40;;;20.90;;
1545;SDS011;766;51.502;9.752;2023-10-19T03:08:48;51.00;;;21.02;;
1545;SDS011;766;51.502;9.752;2023-10-19T03:11:25;32.60;;;16.40;;
1545;SDS011;766;51.502;9.752;2023-10-19T03:13:54;37.42;;;17.13;;
1545;SDS011;766;51.502;9.752;2023-10-19T03:16:23;37.88;;;18.45;;
1545;SDS011;766;51.502;9.752;2023-10-19T03:18:55;28.48;;;16.10;;
1545;SDS011;766;51.502;9.752;2023-10-19T03:21:23;29.98;;;17.15;;
1545;SDS011;766;51.502;9.752;2023-10-19T03:23:53;26.77;;;15.15;;
1545;SDS011;766;51.502;9.752;2023-10-19T03:26:23;38.83;;;16.23;;
1545;SDS011;766;51.502;9.752;2023-10-19T03:28:58;29.85;;;15.68;;
1545;SDS011;766;51.502;9.752;2023-10-19T03:31:36;38.47;;;16.60;;
1545;SDS011;766;51.502;9.752;2023-10-19T03:34:09;30.63;;;15.93;;
1545;SDS011;766;51.502;9.752;2023-10-19T03:36:39;26.63;;;15.60;;
1545;SDS011;766;51.502;9.752;2023-10-19T03:39:08;28.45;;;14.68;;
1545;SDS011;766;51.502;9.752;2023-10-19T03:41:40;31.88;;;16.35;;
1545;SDS011;766;51.502;9.752;2023-10-19T03:44:11;37.47;;;16.17;;
1545;SDS011;766;51.502;9.752;2023-10-19T03:46:45;32.53;;;16.08;;
1545;SDS011;766;51.502;9.752;2023-10-19T03:49:24;29.40;;;15.55;;
1545;SDS011;766;51.502;9.752;2023-10-19T03:51:57;40.97;;;16.00;;
1545;SDS011;766;51.502;9.752;2023-10-19T03:54:27;34.15;;;15.30;;
1545;SDS011;766;51.502;9.752;2023-10-19T03:56:59;30.15;;;14.88;;
1545;SDS011;766;51.502;9.752;2023-10-19T03:59:34;33.97;;;15.13;;
1545;SDS011;766;51.502;9.752;2023-10-19T04:02:04;33.67;;;15.48;;
1545;SDS011;766;51.502;9.752;2023-10-19T04:04:37;33.53;;;15.35;;
1545;SDS011;766;51.502;9.752;2023-10-19T04:07:10;23.33;;;13.15;;
1545;SDS011;766;51.502;9.752;2023-10-19T04:09:45;36.65;;;13.82;;
1545;SDS011;766;51.502;9.752;2023-10-19T04:12:27;25.10;;;13.73;;
1545;SDS011;766;51.502;9.752;2023-10-19T04:14:59;34.08;;;14.35;;
1545;SDS011;766;51.502;9.752;2023-10-19T04:17:38;28.60;;;12.70;;
1545;SDS011;766;51.502;9.752;2023-10-19T04:20:09;21.70;;;12.20;;
1545;SDS011;766;51.502;9.752;2023-10-19T04:22:54;20.95;;;10.85;;
1545;SDS011;766;51.502;9.752;2023-10-19T04:25:24;30.88;;;12.65;;
1545;SDS011;766;51.502;9.752;2023-10-19T04:27:53;17.65;;;10.65;;
1545;SDS011;766;51.502;9.752;2023-10-19T04:30:25;20.88;;;11.38;;
1545;SDS011;766;51.502;9.752;2023-10-19T04:32:54;19.95;;;11.10;;
1545;SDS011;766;51.502;9.752;2023-10-19T04:35:25;17.35;;;10.73;;
1545;SDS011;766;51.502;9.752;2023-10-19T04:37:56;16.90;;;10.82;;
1545;SDS011;766;51.502;9.752;2023-10-19T04:40:26;19.75;;;11.13;;
1545;SDS011;766;51.502;9.752;2023-10-19T04:42:54;28.98;;;11.80;;
1545;SDS011;766;51.502;9.752;2023-10-19T04:45:24;26.38;;;10.63;;
1545;SDS011;766;51.502;9.752;2023-10-19T04:47:52;21.13;;;10.55;;
1545;SDS011;766;51.502;9.752;2023-10-19T04:50:21;29.83;;;10.50;;
1545;SDS011;766;51.502;9.752;2023-10-19T04:52:50;22.73;;;10.02;;
1545;SDS011;766;51.502;9.752;2023-10-19T04:55:18;21.70;;;9.43;;
1545;SDS011;766;51.502;9.752;2023-10-19T04:57:46;24.10;;;9.95;;
1545;SDS011;766;51.502;9.752;2023-10-19T05:00:16;16.92;;;8.40;;
1545;SDS011;766;51.502;9.752;2023-10-19T05:02:49;11.98;;;8.82;;
1545;SDS011;766;51.502;9.752;2023-10-19T05:05:18;18.98;;;8.75;;
1545;SDS011;766;51.502;9.752;2023-10-19T05:07:47;15.82;;;8.75;;
1545;SDS011;766;51.502;9.752;2023-10-19T05:10:15;17.35;;;7.85;;
1545;SDS011;766;51.502;9.752;2023-10-19T05:12:46;14.38;;;7.95;;
1545;SDS011;766;51.502;9.752;2023-10-19T05:15:14;16.27;;;8.43;;
1545;SDS011;766;51.502;9.752;2023-10-19T05:17:45;14.18;;;8.15;;
1545;SDS011;766;51.502;9.752;2023-10-19T05:20:15;10.80;;;7.15;;
1545;SDS011;766;51.502;9.752;2023-10-19T05:22:43;15.68;;;7.30;;
1545;SDS011;766;51.502;9.752;2023-10-19T05:25:11;12.65;;;7.38;;
1545;SDS011;766;51.502;9.752;2023-10-19T05:27:40;14.75;;;7.82;;
1545;SDS011;766;51.502;9.752;2023-10-19T05:30:09;14.80;;;7.72;;
1545;SDS011;766;51.502;9.752;2023-10-19T05:32:37;18.70;;;8.02;;
1545;SDS011;766;51.502;9.752;2023-10-19T05:35:06;18.33;;;9.38;;
1545;SDS011;766;51.502;9.752;2023-10-19T05:37:41;17.25;;;7.85;;
1545;SDS011;766;51.502;9.752;2023-10-19T05:40:10;16.52;;;8.63;;
1545;SDS011;766;51.502;9.752;2023-10-19T05:42:41;16.27;;;8.77;;
1545;SDS011;766;51.502;9.752;2023-10-19T05:45:09;13.18;;;8.02;;
1545;SDS011;766;51.502;9.752;2023-10-19T05:47:40;16.00;;;9.05;;
1545;SDS011;766;51.502;9.752;2023-10-19T05:50:08;16.02;;;9.07;;
1545;SDS011;766;51.502;9.752;2023-10-19T05:52:42;17.92;;;9.90;;
1545;SDS011;766;51.502;9.752;2023-10-19T05:55:11;14.35;;;8.95;;
1545;SDS011;766;51.502;9.752;2023-10-19T05:57:40;17.20;;;9.38;;
1545;SDS011;766;51.502;9.752;2023-10-19T06:00:09;16.77;;;9.70;;
1545;SDS011;766;51.502;9.752;2023-10-19T06:02:42;16.92;;;10.35;;
1545;SDS011;766;51.502;9.752;2023-10-19T06:05:12;20.73;;;10.90;;
1545;SDS011;766;51.502;9.752;2023-10-19T06:07:43;19.13;;;11.10;;
1545;SDS011;766;51.502;9.752;2023-10-19T06:10:13;19.40;;;10.10;;
1545;SDS011;766;51.502;9.752;2023-10-19T06:12:47;21.20;;;11.27;;
1545;SDS011;766;51.502;9.752;2023-10-19T06:15:18;22.67;;;11.20;;
1545;SDS011;766;51.502;9.752;2023-10-19T06:17:47;19.95;;;11.15;;
1545;SDS011;766;51.502;9.752;2023-10-19T06:20:16;27.70;;;12.57;;
1545;SDS011;766;51.502;9.752;2023-10-19T06:22:52;29.45;;;12.68;;
1545;SDS011;766;51.502;9.752;2023-10-19T06:25:23;28.55;;;12.05;;
1545;SDS011;766;51.502;9.752;2023-10-19T06:27:52;30.55;;;13.25;;
1545;SDS011;766;51.502;9.752;2023-10-19T06:30:24;24.35;;;11.27;;
1545;SDS011;766;51.502;9.752;2023-10-19T06:32:55;20.40;;;11.07;;
1545;SDS011;766;51.502;9.752;2023-10-19T06:35:28;33.38;;;12.05;;
1545;SDS011;766;51.502;9.752;2023-10-19T06:37:59;31.73;;;12.65;;
1545;SDS011;766;51.502;9.752;2023-10-19T06:40:30;35.80;;;13.20;;
1545;SDS011;766;51.502;9.752;2023-10-19T06:42:59;28.63;;;12.82;;
1545;SDS011;766;51.502;9.752;2023-10-19T06:45:29;32.55;;;11.85;;
1545;SDS011;766;51.502;9.752;2023-10-19T06:47:57;33.97;;;12.75;;
1545;SDS011;766;51.502;9.752;2023-10-19T06:50:26;32.58;;;12.63;;
1545;SDS011;766;51.502;9.752;2023-10-19T06:52:55;30.35;;;13.18;;
1545;SDS011;766;51.502;9.752;2023-10-19T06:55:25;38.13;;;13.68;;
1545;SDS011;766;51.502;9.752;2023-10-19T06:57:54;35.53;;;13.70;;
1545;SDS011;766;51.502;9.752;2023-10-19T07:00:23;32.00;;;12.85;;
1545;SDS011;766;51.502;9.752;2023-10-19T07:02:54;37.35;;;13.25;;
1545;SDS011;766;51.502;9.752;2023-10-19T07:05:27;36.60;;;14.30;;
1545;SDS011;766;51.502;9.752;2023-10-19T07:07:57;29.70;;;12.82;;
1545;SDS011;766;51.502;9.752;2023-10-19T07:10:29;39.22;;;14.18;;
1545;SDS011;766;51.502;9.752;2023-10-19T07:12:57;31.30;;;13.57;;
1545;SDS011;766;51.502;9.752;2023-10-19T07:15:25;32.95;;;13.68;;
1545;SDS011;766;51.502;9.752;2023-10-19T07:17:56;37.45;;;13.98;;
1545;SDS011;766;51.502;9.752;2023-10-19T07:20:25;33.40;;;13.68;;
1545;SDS011;766;51.502;9.752;2023-10-19T07:22:56;33.55;;;13.13;;
1545;SDS011;766;51.502;9.752;2023-10-19T07:25:28;44.22;;;13.88;;
1545;SDS011;766;51.502;9.752;2023-10-19T07:27:57;35.03;;;14.38;;
1545;SDS011;766;51.502;9.752;2023-10-19T07:30:26;31.60;;;13.23;;
1545;SDS011;766;51.502;9.752;2023-10-19T07:32:55;37.40;;;13.70;;
1545;SDS011;766;51.502;9.752;2023-10-19T07:35:26;37.33;;;13.75;;
1545;SDS011;766;51.502;9.752;2023-10-19T07:37:54;33.63;;;13.13;;
1545;SDS011;766;51.502;9.752;2023-10-19T07:40:23;29.40;;;12.18;;
1545;SDS011;766;51.502;9.752;2023-10-19T07:42:53;28.02;;;12.30;;
1545;SDS011;766;51.502;9.752;2023-10-19T07:45:21;35.67;;;13.18;;
1545;SDS011;766;51.502;9.752;2023-10-19T07:47:52;26.73;;;11.65;;
1545;SDS011;766;51.502;9.752;2023-10-19T07:50:20;32.90;;;11.55;;
1545;SDS011;766;51.502;9.752;2023-10-19T07:52:50;30.05;;;12.32;;
1545;SDS011;766;51.502;9.752;2023-10-19T07:55:20;28.77;;;12.77;;
1545;SDS011;766;51.502;9.752;2023-10-19T07:57:50;20.67;;;11.70;;
1545;SDS011;766;51.502;9.752;2023-10-19T08:00:20;39.10;;;16.85;;
1545;SDS011;766;51.502;9.752;2023-10-19T08:02:50;23.25;;;13.15;;
1545;SDS011;766;51.502;9.752;2023-10-19T08:05:21;23.08;;;12.77;;
1545;SDS011;766;51.502;9.752;2023-10-19T08:07:49;24.27;;;12.15;;
1545;SDS011;766;51.502;9.752;2023-10-19T08:10:18;20.40;;;10.70;;
1545;SDS011;766;51.502;9.752;2023-10-19T08:12:48;20.17;;;10.85;;
1545;SDS011;766;51.502;9.752;2023-10-19T08:15:19;16.77;;;9.27;;
1545;SDS011;766;51.502;9.752;2023-10-19T08:17:48;20.83;;;10.52;;
1545;SDS011;766;51.502;9.752;2023-10-19T08:20:17;17.90;;;9.73;;
1545;SDS011;766;51.502;9.752;2023-10-19T08:22:52;19.02;;;9.68;;
1545;SDS011;766;51.502;9.752;2023-10-19T08:25:21;15.95;;;9.32;;
1545;SDS011;766;51.502;9.752;2023-10-19T08:27:51;20.55;;;10.85;;
1545;SDS011;766;51.502;9.752;2023-10-19T08:30:24;20.25;;;11.15;;
1545;SDS011;766;51.502;9.752;2023-10-19T08:32:54;15.43;;;10.40;;
1545;SDS011;766;51.502;9.752;2023-10-19T08:35:25;20.55;;;10.93;;
1545;SDS011;766;51.502;9.752;2023-10-19T08:37:54;15.88;;;10.10;;
1545;SDS011;766;51.502;9.752;2023-10-19T08:40:24;16.08;;;9.98;;
1545;SDS011;766;51.502;9.752;2023-10-19T08:42:54;19.00;;;10.57;;
1545;SDS011;766;51.502;9.752;2023-10-19T08:45:24;21.45;;;11.15;;
1545;SDS011;766;51.502;9.752;2023-10-19T08:47:53;24.60;;;10.90;;
1545;SDS011;766;51.502;9.752;2023-10-19T08:50:24;21.83;;;11.25;;
1545;SDS011;766;51.502;9.752;2023-10-19T08:52:53;22.33;;;11.00;;
1545;SDS011;766;51.502;9.752;2023-10-19T08:55:22;21.67;;;11.00;;
1545;SDS011;766;51.502;9.752;2023-10-19T08:58:11;27.13;;;12.00;;
1545;SDS011;766;51.502;9.752;2023-10-19T09:00:44;21.85;;;10.57;;
1545;SDS011;766;51.502;9.752;2023-10-19T09:03:15;22.77;;;11.07;;
1545;SDS011;766;51.502;9.752;2023-10-19T09:05:45;22.67;;;10.77;;
1545;SDS011;766;51.502;9.752;2023-10-19T09:08:14;21.25;;;9.90;;
1545;SDS011;766;51.502;9.752;2023-10-19T09:10:44;18.38;;;9.45;;
1545;SDS011;766;51.502;9.752;2023-10-19T09:13:13;16.20;;;9.77;;
1545;SDS011;766;51.502;9.752;2023-10-19T09:15:47;19.58;;;9.20;;
1545;SDS011;766;51.502;9.752;2023-10-19T09:18:17;13.35;;;7.85;;
1545;SDS011;766;51.502;9.752;2023-10-19T09:20:46;16.00;;;8.63;;
1545;SDS011;766;51.502;9.752;2023-10-19T09:23:34;12.73;;;6.82;;
1545;SDS011;766;51.502;9.752;2023-10-19T09:26:04;10.13;;;6.30;;
1545;SDS011;766;51.502;9.752;2023-10-19T09:28:34;13.85;;;7.60;;
1545;SDS011;766;51.502;9.752;2023-10-19T09:31:05;12.98;;;6.88;;
1545;SDS011;766;51.502;9.752;2023-10-19T09:33:36;24.92;;;12.57;;
1545;SDS011;766;51.502;9.752;2023-10-19T09:36:10;25.45;;;11.85;;
1545;SDS011;766;51.502;9.752;2023-10-19T09:38:43;25.58;;;12.65;;
1545;SDS011;766;51.502;9.752;2023-10-19T09:41:15;17.70;;;10.10;;
1545;SDS011;766;51.502;9.752;2023-10-19T09:43:45;23.08;;;11.57;;
1545;SDS011;766;51.502;9.752;2023-10-19T09:46:20;16.92;;;10.43;;
1545;SDS011;766;51.502;9.752;2023-10-19T09:48:50;19.35;;;11.10;;
1545;SDS011;766;51.502;9.752;2023-10-19T09:51:19;11.93;;;6.90;;
1545;SDS011;766;51.502;9.752;2023-10-19T09:53:51;10.90;;;7.15;;
1545;SDS011;766;51.502;9.752;2023-10-19T09:56:24;11.93;;;7.82;;
1545;SDS011;766;51.502;9.752;2023-10-19T09:58:57;16.08;;;9.32;;
1545;SDS011;766;51.502;9.752;2023-10-19T10:04:34;13.55;;;8.85;;
1545;SDS011;766;51.502;9.752;2023-10-19T10:07:04;16.00;;;8.52;;
1545;SDS011;766;51.502;9.752;2023-10-19T10:09:34;13.27;;;8.88;;
1545;SDS011;766;51.502;9.752;2023-10-19T10:12:16;14.65;;;8.13;;
1545;SDS011;766;51.502;9.752;2023-10-19T10:14:55;18.67;;;7.10;;
1545;SDS011;766;51.502;9.752;2023-10-19T10:17:26;9.80;;;6.38;;
1545;SDS011;766;51.502;9.752;2023-10-19T10:19:56;11.57;;;6.78;;
1545;SDS011;766;51.502;9.752;2023-10-19T10:25:48;18.92;;;7.88;;
1545;SDS011;766;51.502;9.752;2023-10-19T10:28:17;9.90;;;6.93;;
1545;SDS011;766;51.502;9.752;2023-10-19T10:31:06;13.02;;;7.10;;
1545;SDS011;766;51.502;9.752;2023-10-19T10:33:40;13.13;;;8.75;;
1545;SDS011;766;51.502;9.752;2023-10-19T10:36:11;14.35;;;8.68;;
1545;SDS011;766;51.502;9.752;2023-10-19T10:38:40;15.20;;;7.75;;
1545;SDS011;766;51.502;9.752;2023-10-19T10:41:09;9.07;;;6.78;;
1545;SDS011;766;51.502;9.752;2023-10-19T10:43:47;14.05;;;7.80;;
1545;SDS011;766;51.502;9.752;2023-10-19T10:46:19;12.15;;;6.60;;
1545;SDS011;766;51.502;9.752;2023-10-19T10:48:50;10.65;;;7.97;;
1545;SDS011;766;51.502;9.752;2023-10-19T10:51:19;12.13;;;7.20;;
1545;SDS011;766;51.502;9.752;2023-10-19T10:53:49;12.18;;;7.38;;
1545;SDS011;766;51.502;9.752;2023-10-19T10:56:19;11.48;;;7.47;;
1545;SDS011;766;51.502;9.752;2023-10-19T10:58:49;12.57;;;8.38;;
1545;SDS011;766;51.502;9.752;2023-10-19T11:01:27;10.82;;;8.05;;
1545;SDS011;766;51.502;9.752;2023-10-19T11:04:07;12.23;;;7.28;;
1545;SDS011;766;51.502;9.752;2023-10-19T11:06:47;12.50;;;7.03;;
1545;SDS011;766;51.502;9.752;2023-10-19T11:09:19;12.70;;;7.63;;
1545;SDS011;766;51.502;9.752;2023-10-19T11:11:48;14.13;;;8.32;;
1545;SDS011;766;51.502;9.752;2023-10-19T11:14:19;17.40;;;7.90;;
1545;SDS011;766;51.502;9.752;2023-10-19T11:16:50;11.80;;;7.43;;
1545;SDS011;766;51.502;9.752;2023-10-19T11:19:19;13.35;;;8.07;;
1545;SDS011;766;51.502;9.752;2023-10-19T11:21:54;11.32;;;7.55;;
1545;SDS011;766;51.502;9.752;2023-10-19T11:24:26;11.05;;;7.93;;
1545;SDS011;766;51.502;9.752;2023-10-19T11:27:00;11.07;;;8.23;;
1545;SDS011;766;51.502;9.752;2023-10-19T11:29:29;11.88;;;8.52;;
1545;SDS011;766;51.502;9.752;2023-10-19T11:31:57;8.18;;;6.90;;
1545;SDS011;766;51.502;9.752;2023-10-19T11:34:28;8.93;;;6.60;;
1545;SDS011;766;51.502;9.752;2023-10-19T11:36:57;10.90;;;8.13;;
1545;SDS011;766;51.502;9.752;2023-10-19T11:39:27;10.65;;;7.45;;
1545;SDS011;766;51.502;9.752;2023-10-19T11:41:58;8.73;;;6.13;;
1545;SDS011;766;51.502;9.752;2023-10-19T11:44:26;9.50;;;7.57;;
1545;SDS011;766;51.502;9.752;2023-10-19T11:46:55;10.88;;;8.65;;
1545;SDS011;766;51.502;9.752;2023-10-19T11:49:24;9.80;;;6.93;;
1545;SDS011;766;51.502;9.752;2023-10-19T11:51:53;9.20;;;6.38;;
1545;SDS011;766;51.502;9.752;2023-10-19T11:54:22;11.82;;;6.78;;
1545;SDS011;766;51.502;9.752;2023-10-19T11:56:50;12.45;;;7.72;;
1545;SDS011;766;51.502;9.752;2023-10-19T11:59:19;13.77;;;7.03;;
1545;SDS011;766;51.502;9.752;2023-10-19T12:01:47;9.68;;;7.10;;
1545;SDS011;766;51.502;9.752;2023-10-19T12:04:16;11.23;;;7.65;;
1545;SDS011;766;51.502;9.752;2023-10-19T12:06:44;9.05;;;7.00;;
1545;SDS011;766;51.502;9.752;2023-10-19T12:09:15;12.68;;;8.85;;
1545;SDS011;766;51.502;9.752;2023-10-19T12:11:43;12.45;;;8.35;;
1545;SDS011;766;51.502;9.752;2023-10-19T12:14:14;12.30;;;7.55;;
1545;SDS011;766;51.502;9.752;2023-10-19T12:16:42;13.68;;;9.93;;
1545;SDS011;766;51.502;9.752;2023-10-19T12:19:12;11.90;;;7.80;;
1545;SDS011;766;51.502;9.752;2023-10-19T12:21:41;11.55;;;7.70;;
1545;SDS011;766;51.502;9.752;2023-10-19T12:24:11;13.70;;;7.63;;
1545;SDS011;766;51.502;9.752;2023-10-19T12:26:40;10.75;;;7.53;;
1545;SDS011;766;51.502;9.752;2023-10-19T12:29:09;9.57;;;8.02;;
1545;SDS011;766;51.502;9.752;2023-10-19T12:31:38;12.57;;;8.02;;
1545;SDS011;766;51.502;9.752;2023-10-19T12:34:07;13.68;;;7.97;;
1545;SDS011;766;51.502;9.752;2023-10-19T12:36:38;12.73;;;7.88;;
1545;SDS011;766;51.502;9.752;2023-10-19T12:39:07;10.90;;;7.57;;
1545;SDS011;766;51.502;9.752;2023-10-19T12:41:43;9.63;;;8.07;;
1545;SDS011;766;51.502;9.752;2023-10-19T12:44:13;16.13;;;7.75;;
1545;SDS011;766;51.502;9.752;2023-10-19T12:46:42;12.65;;;8.10;;
1545;SDS011;766;51.502;9.752;2023-10-19T12:49:10;10.95;;;8.15;;
1545;SDS011;766;51.502;9.752;2023-10-19T12:51:43;12.15;;;8.52;;
1545;SDS011;766;51.502;9.752;2023-10-19T12:54:11;11.77;;;8.98;;
1545;SDS011;766;51.502;9.752;2023-10-19T12:56:40;11.80;;;8.50;;
1545;SDS011;766;51.502;9.752;2023-10-19T12:59:10;12.98;;;9.15;;
1545;SDS011;766;51.502;9.752;2023-10-19T13:01:40;13.52;;;9.07;;
1545;SDS011;766;51.502;9.752;2023-10-19T13:04:11;11.88;;;8.07;;
1545;SDS011;766;51.502;9.752;2023-10-19T13:06:43;12.05;;;9.50;;
1545;SDS011;766;51.502;9.752;2023-10-19T13:09:13;13.98;;;8.98;;
1545;SDS011;766;51.502;9.752;2023-10-19T13:11:49;13.50;;;9.18;;
1545;SDS011;766;51.502;9.752;2023-10-19T13:14:19;10.90;;;8.52;;
1545;SDS011;766;51.502;9.752;2023-10-19T13:16:48;12.88;;;7.13;;
1545;SDS011;766;51.502;9.752;2023-10-19T13:19:18;11.82;;;7.07;;
1545;SDS011;766;51.502;9.752;2023-10-19T13:21:50;11.73;;;7.22;;
1545;SDS011;766;51.502;9.752;2023-10-19T13:24:19;10.45;;;6.53;;
1545;SDS011;766;51.502;9.752;2023-10-19T13:26:48;14.13;;;7.70;;
1545;SDS011;766;51.502;9.752;2023-10-19T13:29:17;7.65;;;5.55;;
1545;SDS011;766;51.502;9.752;2023-10-19T13:31:48;9.23;;;5.47;;
1545;SDS011;766;51.502;9.752;2023-10-19T13:34:18;8.07;;;5.85;;
1545;SDS011;766;51.502;9.752;2023-10-19T13:36:46;9.07;;;6.07;;
1545;SDS011;766;51.502;9.752;2023-10-19T13:39:14;9.32;;;5.18;;
1545;SDS011;766;51.502;9.752;2023-10-19T13:41:43;10.70;;;5.75;;
1545;SDS011;766;51.502;9.752;2023-10-19T13:44:11;9.02;;;5.82;;
1545;SDS011;766;51.502;9.752;2023-10-19T13:46:40;7.85;;;5.93;;
1545;SDS011;766;51.502;9.752;2023-10-19T13:49:10;11.80;;;5.45;;
1545;SDS011;766;51.502;9.752;2023-10-19T13:51:38;10.80;;;5.18;;
1545;SDS011;766;51.502;9.752;2023-10-19T13:54:06;8.43;;;4.90;;
1545;SDS011;766;51.502;9.752;2023-10-19T13:56:34;8.07;;;5.88;;
1545;SDS011;766;51.502;9.752;2023-10-19T13:59:03;9.68;;;5.55;;
1545;SDS011;766;51.502;9.752;2023-10-19T14:01:32;10.02;;;5.38;;
1545;SDS011;766;51.502;9.752;2023-10-19T14:04:00;9.35;;;4.97;;
1545;SDS011;766;51.502;9.752;2023-10-19T14:06:30;10.35;;;5.38;;
1545;SDS011;766;51.502;9.752;2023-10-19T14:08:58;8.80;;;5.10;;
1545;SDS011;766;51.502;9.752;2023-10-19T14:11:26;9.18;;;5.03;;
1545;SDS011;766;51.502;9.752;2023-10-19T14:13:55;9.30;;;5.28;;
1545;SDS011;766;51.502;9.752;2023-10-19T14:16:23;8.32;;;5.45;;
1545;SDS011;766;51.502;9.752;2023-10-19T14:18:53;8.32;;;5.15;;
1545;SDS011;766;51.502;9.752;2023-10-19T14:21:22;7.95;;;5.40;;
1545;SDS011;766;51.502;9.752;2023-10-19T14:23:54;9.80;;;6.03;;
1545;SDS011;766;51.502;9.752;2023-10-19T14:26:23;9.55;;;5.53;;
1545;SDS011;766;51.502;9.752;2023-10-19T14:28:51;7.75;;;5.47;;
1545;SDS011;766;51.502;9.752;2023-10-19T14:31:20;9.48;;;5.40;;
1545;SDS011;766;51.502;9.752;2023-10-19T14:33:48;13.30;;;6.13;;
1545;SDS011;766;51.502;9.752;2023-10-19T14:36:17;10.13;;;5.88;;
1545;SDS011;766;51.502;9.752;2023-10-19T14:38:45;10.55;;;6.45;;
1545;SDS011;766;51.502;9.752;2023-10-19T14:41:15;9.65;;;7.20;;
1545;SDS011;766;51.502;9.752;2023-10-19T14:43:43;10.07;;;7.25;;
1545;SDS011;766;51.502;9.752;2023-10-19T14:46:11;9.45;;;7.10;;
1545;SDS011;766;51.502;9.752;2023-10-19T14:48:40;10.50;;;7.07;;
1545;SDS011;766;51.502;9.752;2023-10-19T14:51:08;12.13;;;7.95;;
1545;SDS011;766;51.502;9.752;2023-10-19T14:53:38;12.85;;;7.00;;
1545;SDS011;766;51.502;9.752;2023-10-19T14:56:07;10.73;;;7.82;;
1545;SDS011;766;51.502;9.752;2023-10-19T14:58:36;11.00;;;7.68;;
1545;SDS011;766;51.502;9.752;2023-10-19T15:01:05;13.57;;;7.60;;
1545;SDS011;766;51.502;9.752;2023-10-19T15:03:41;13.48;;;7.40;;
1545;SDS011;766;51.502;9.752;2023-10-19T15:06:09;11.68;;;7.72;;
1545;SDS011;766;51.502;9.752;2023-10-19T15:08:40;12.75;;;7.57;;
1545;SDS011;766;51.502;9.752;2023-10-19T15:11:09;13.68;;;7.38;;
1545;SDS011;766;51.502;9.752;2023-10-19T15:13:38;17.00;;;8.40;;
1545;SDS011;766;51.502;9.752;2023-10-19T15:16:07;10.77;;;7.78;;
1545;SDS011;766;51.502;9.752;2023-10-19T15:18:36;11.15;;;8.23;;
1545;SDS011;766;51.502;9.752;2023-10-19T15:21:05;14.07;;;9.15;;
1545;SDS011;766;51.502;9.752;2023-10-19T15:23:35;17.17;;;9.15;;
1545;SDS011;766;51.502;9.752;2023-10-19T15:26:03;14.55;;;10.13;;
1545;SDS011;766;51.502;9.752;2023-10-19T15:28:31;14.63;;;10.05;;
1545;SDS011;766;51.502;9.752;2023-10-19T15:31:02;13.18;;;9.10;;
1545;SDS011;766;51.502;9.752;2023-10-19T15:33:33;12.50;;;9.73;;
1545;SDS011;766;51.502;9.752;2023-10-19T15:36:01;14.73;;;10.52;;
1545;SDS011;766;51.502;9.752;2023-10-19T15:38:29;13.93;;;10.00;;